Time;durP1;ratioP1;P1;durP2;ratioP2;P2;SDS_P1;SDS_P2;PMS_P1;PMS_P2;Temp;Humidity;BMP_temperature;BMP_pressure;BME280_temperature;BME280_humidity;BME280_pressure;Samples;Min_cycle;Max_cycle;Signal;HPM_P1;HPM_P2
2023/07/14 00:00:39;;;;;;;4.70;2.40;;;13.20;95.40;;;;;;2086530;28;20232;-68
2023/07/14 00:01:40;;;;;;;2.88;2.13;;;13.20;95.60;;;;;;2076221;28;20232;-67
2023/07/14 00:02:44;;;;;;;4.23;2.30;;;13.20;95.80;;;;;;2078077;28;20570;-68
2023/07/14 00:03:46;;;;;;;3.38;2.28;;;13.10;96.60;;;;;;2071103;28;20316;-68
2023/07/14 00:04:46;;;;;;;3.42;2.30;;;13.10;96.30;;;;;;2070293;28;20244;-67
2023/07/14 00:05:47;;;;;;;2.43;1.90;;;13.10;96.40;;;;;;2070550;28;20229;-68
2023/07/14 00:06:48;;;;;;;4.03;2.30;;;13.10;96.50;;;;;;2075364;28;20241;-67
2023/07/14 00:07:50;;;;;;;4.70;2.27;;;13.10;96.80;;;;;;2078273;28;20221;-67
2023/07/14 00:08:51;;;;;;;2.40;2.20;;;13.10;96.40;;;;;;2075334;28;21001;-67
2023/07/14 00:09:52;;;;;;;3.97;2.47;;;13.20;96.30;;;;;;2078338;28;20229;-67
2023/07/14 00:10:53;;;;;;;5.47;2.67;;;13.10;96.10;;;;;;2078673;28;20232;-67
2023/07/14 00:11:55;;;;;;;2.33;2.13;;;13.10;96.10;;;;;;2079323;28;20371;-67
2023/07/14 00:12:55;;;;;;;3.22;2.35;;;13.20;96.10;;;;;;2078449;28;20279;-67
2023/07/14 00:13:57;;;;;;;4.50;2.37;;;13.20;95.80;;;;;;2078221;28;20312;-69
2023/07/14 00:14:58;;;;;;;3.10;2.50;;;13.20;96.00;;;;;;2075581;28;20618;-67
2023/07/14 00:15:59;;;;;;;3.70;2.27;;;13.20;96.00;;;;;;2078596;28;20280;-67
2023/07/14 00:17:01;;;;;;;5.37;2.30;;;13.10;95.90;;;;;;2070787;28;20843;-68
2023/07/14 00:18:25;;;;;;;2.80;2.10;;;13.10;96.00;;;;;;2077148;28;20732;-68
2023/07/14 00:19:26;;;;;;;4.63;2.30;;;13.20;96.10;;;;;;2078612;28;20298;-68
2023/07/14 00:20:30;;;;;;;2.60;2.10;;;13.10;96.00;;;;;;2070260;28;20316;-67
2023/07/14 00:21:31;;;;;;;3.47;2.50;;;13.10;96.20;;;;;;2072965;28;20706;-67
2023/07/14 00:22:32;;;;;;;3.63;2.00;;;13.00;96.60;;;;;;2073188;28;20229;-66
2023/07/14 00:23:32;;;;;;;2.87;2.17;;;13.00;96.80;;;;;;2076094;28;20712;-66
2023/07/14 00:24:33;;;;;;;3.27;2.20;;;12.90;97.00;;;;;;2081791;28;20229;-67
2023/07/14 00:25:34;;;;;;;2.47;1.90;;;13.00;96.80;;;;;;2086820;28;20722;-66
2023/07/14 00:26:35;;;;;;;2.50;2.30;;;12.90;96.70;;;;;;2083876;28;20312;-67
2023/07/14 00:27:36;;;;;;;3.95;2.67;;;13.00;96.80;;;;;;2086021;28;20232;-67
2023/07/14 00:28:38;;;;;;;5.28;2.17;;;13.00;96.50;;;;;;2086479;28;20298;-67
2023/07/14 00:29:39;;;;;;;2.35;2.10;;;12.90;96.50;;;;;;2079268;28;20243;-66
2023/07/14 00:30:40;;;;;;;2.83;1.92;;;12.90;96.90;;;;;;2081570;28;20229;-67
2023/07/14 00:31:41;;;;;;;4.72;2.40;;;12.90;96.80;;;;;;2077728;28;20712;-67
2023/07/14 00:32:42;;;;;;;4.90;2.23;;;13.00;96.60;;;;;;2078359;28;20225;-67
2023/07/14 00:33:47;;;;;;;3.33;2.30;;;13.00;96.80;;;;;;2086994;28;20289;-67
2023/07/14 00:34:47;;;;;;;2.65;2.42;;;12.90;96.60;;;;;;2080269;28;20232;-67
2023/07/14 00:35:48;;;;;;;2.83;2.53;;;13.00;96.80;;;;;;2076640;28;20316;-67
2023/07/14 00:36:49;;;;;;;2.80;2.10;;;12.90;96.70;;;;;;2078460;28;20225;-68
2023/07/14 00:37:52;;;;;;;3.77;2.63;;;13.00;96.80;;;;;;2075425;28;20331;-67
2023/07/14 00:38:53;;;;;;;3.03;2.40;;;13.00;96.70;;;;;;2078444;28;20232;-67
2023/07/14 00:39:53;;;;;;;3.47;2.57;;;13.10;96.50;;;;;;2078671;28;20379;-68
2023/07/14 00:40:54;;;;;;;4.00;2.40;;;13.00;96.30;;;;;;2077904;28;20255;-66
2023/07/14 00:41:55;;;;;;;4.77;2.50;;;13.00;96.60;;;;;;2070632;28;20226;-67
2023/07/14 00:42:57;;;;;;;5.27;2.30;;;12.90;96.70;;;;;;2077808;28;20258;-67
2023/07/14 00:43:58;;;;;;;3.55;2.22;;;13.00;96.80;;;;;;2074247;28;20316;-67
2023/07/14 00:44:59;;;;;;;5.90;2.43;;;12.90;96.40;;;;;;2070215;28;20225;-67
2023/07/14 00:46:01;;;;;;;2.57;2.00;;;12.90;96.60;;;;;;2078134;28;20228;-67
2023/07/14 00:47:05;;;;;;;4.88;2.35;;;12.90;97.20;;;;;;2070123;28;20228;-67
2023/07/14 00:48:08;;;;;;;2.88;2.45;;;12.90;97.00;;;;;;2063563;28;20186;-67
2023/07/14 00:49:32;;;;;;;3.45;2.50;;;12.90;97.00;;;;;;2077458;28;20618;-67
2023/07/14 00:50:40;;;;;;;5.13;1.92;;;12.90;97.10;;;;;;2076570;28;20231;-67
2023/07/14 00:51:42;;;;;;;3.88;2.22;;;12.90;97.00;;;;;;2071145;28;20229;-67
2023/07/14 00:52:46;;;;;;;3.35;2.30;;;12.90;97.20;;;;;;2077855;28;20224;-67
2023/07/14 00:53:46;;;;;;;3.42;2.70;;;12.80;97.20;;;;;;2075126;28;20622;-67
2023/07/14 00:54:51;;;;;;;2.37;2.10;;;12.80;97.30;;;;;;2078819;28;20366;-68
2023/07/14 00:56:10;;;;;;;3.90;2.30;;;12.90;97.30;;;;;;2075323;28;20241;-67
2023/07/14 00:57:20;;;;;;;4.93;2.83;;;12.90;97.40;;;;;;2074898;28;20316;-68
2023/07/14 00:58:26;;;;;;;3.10;2.40;;;12.90;97.50;;;;;;2078161;28;20236;-68
2023/07/14 00:59:34;;;;;;;4.22;2.60;;;12.70;97.50;;;;;;2074747;28;20228;-67
2023/07/14 01:00:35;;;;;;;4.45;2.28;;;12.70;97.60;;;;;;2079637;28;20316;-68
2023/07/14 01:01:36;;;;;;;3.77;2.43;;;12.70;97.60;;;;;;2074458;28;20239;-67
2023/07/14 01:02:37;;;;;;;3.88;2.20;;;12.70;97.60;;;;;;2065329;28;20225;-67
2023/07/14 01:03:40;;;;;;;4.07;2.37;;;12.70;97.80;;;;;;2069670;28;20224;-67
2023/07/14 01:04:47;;;;;;;2.50;2.20;;;12.70;97.90;;;;;;2059402;28;20675;-68
2023/07/14 01:05:48;;;;;;;3.60;2.22;;;12.70;98.00;;;;;;2075658;28;20188;-67
2023/07/14 01:06:50;;;;;;;2.92;2.50;;;12.70;97.70;;;;;;2065457;28;20219;-68
2023/07/14 01:07:51;;;;;;;3.92;2.38;;;12.70;97.70;;;;;;2068219;28;20186;-67
2023/07/14 01:08:55;;;;;;;2.58;2.10;;;12.70;97.90;;;;;;2053047;28;20234;-68
2023/07/14 01:09:58;;;;;;;2.33;2.10;;;12.70;97.90;;;;;;2072313;28;20189;-67
2023/07/14 01:10:59;;;;;;;2.72;2.22;;;12.70;97.60;;;;;;2060587;28;20226;-68
2023/07/14 01:12:01;;;;;;;2.75;2.03;;;12.70;97.70;;;;;;2067272;28;20190;-68
2023/07/14 01:13:07;;;;;;;2.40;2.20;;;12.70;97.70;;;;;;2056887;28;20235;-67
2023/07/14 01:14:17;;;;;;;4.18;2.40;;;12.70;97.80;;;;;;2078637;28;20208;-68
2023/07/14 01:15:18;;;;;;;3.58;2.75;;;12.70;97.90;;;;;;2080098;28;20670;-67
2023/07/14 01:16:19;;;;;;;3.20;2.00;;;12.70;98.20;;;;;;2058370;28;20190;-68
2023/07/14 01:17:21;;;;;;;3.13;2.20;;;12.70;98.40;;;;;;2068280;28;20191;-68
2023/07/14 01:18:22;;;;;;;4.43;2.42;;;12.70;98.60;;;;;;2061662;28;20190;-67
2023/07/14 01:19:58;;;;;;;3.63;2.05;;;12.70;98.70;;;;;;2071878;28;20288;-68
2023/07/14 01:20:58;;;;;;;3.92;2.25;;;12.70;98.70;;;;;;2061776;28;20574;-67
2023/07/14 01:22:28;;;;;;;2.37;2.17;;;12.80;98.60;;;;;;2079941;28;20205;-68
2023/07/14 01:23:44;;;;;;;2.20;2.00;;;12.80;98.70;;;;;;2067642;28;20315;-68
2023/07/14 01:25:02;;;;;;;3.53;2.17;;;12.90;98.30;;;;;;2071447;28;20275;-69
2023/07/14 01:26:10;;;;;;;2.97;2.03;;;13.00;98.00;;;;;;2085122;28;20675;-68
2023/07/14 01:27:11;;;;;;;2.58;2.30;;;13.10;97.50;;;;;;2067024;28;20235;-67
2023/07/14 01:28:14;;;;;;;2.47;1.90;;;13.10;97.10;;;;;;2066097;28;20590;-68
2023/07/14 01:29:16;;;;;;;3.85;2.10;;;13.10;96.90;;;;;;2081050;28;21041;-67
2023/07/14 01:30:19;;;;;;;2.92;2.15;;;13.20;96.60;;;;;;2063446;28;20220;-67
2023/07/14 01:31:24;;;;;;;3.10;2.20;;;13.30;96.20;;;;;;2073546;28;20690;-67
2023/07/14 01:32:38;;;;;;;2.92;2.40;;;13.40;95.80;;;;;;2063422;28;20197;-67
2023/07/14 01:33:38;;;;;;;3.30;2.00;;;13.40;95.60;;;;;;2073752;28;20215;-67
2023/07/14 01:34:39;;;;;;;2.80;1.87;;;13.40;95.40;;;;;;2063128;28;20638;-68
2023/07/14 01:35:46;;;;;;;6.27;2.23;;;13.40;95.50;;;;;;2077422;28;20641;-67
2023/07/14 01:36:48;;;;;;;5.00;2.30;;;13.30;95.70;;;;;;2055472;28;20313;-67
2023/07/14 01:37:49;;;;;;;2.88;1.85;;;13.30;95.80;;;;;;2065069;28;20200;-67
2023/07/14 01:38:53;;;;;;;4.63;2.35;;;13.30;95.80;;;;;;2068920;28;20229;-67
2023/07/14 01:39:55;;;;;;;3.20;2.15;;;13.30;96.30;;;;;;2085376;28;20680;-68
2023/07/14 01:40:56;;;;;;;2.90;2.15;;;13.40;96.30;;;;;;2077813;28;20230;-68
2023/07/14 01:41:56;;;;;;;2.65;2.25;;;13.40;96.20;;;;;;2077812;28;20681;-68
2023/07/14 01:43:01;;;;;;;3.47;2.30;;;13.40;96.20;;;;;;2067377;28;20280;-68
2023/07/14 01:44:04;;;;;;;4.45;2.17;;;13.40;96.30;;;;;;2068790;28;20213;-68
2023/07/14 01:45:12;;;;;;;4.45;2.10;;;13.40;96.30;;;;;;2061094;28;20256;-68
2023/07/14 01:46:20;;;;;;;3.70;2.30;;;13.30;96.30;;;;;;2080616;28;20181;-68
2023/07/14 01:47:23;;;;;;;3.10;2.40;;;13.30;96.50;;;;;;2053498;28;20214;-68
2023/07/14 01:48:39;;;;;;;2.63;2.05;;;13.30;96.30;;;;;;2059928;28;20209;-67
2023/07/14 01:49:46;;;;;;;3.88;2.33;;;13.30;96.30;;;;;;2078285;28;20284;-67
2023/07/14 01:50:56;;;;;;;4.63;2.55;;;13.30;96.30;;;;;;2048029;28;20330;-67
2023/07/14 01:52:01;;;;;;;4.15;2.15;;;13.20;96.40;;;;;;2065991;28;20204;-68
2023/07/14 01:53:10;;;;;;;3.00;2.17;;;13.10;96.60;;;;;;2055539;28;20286;-67
2023/07/14 01:54:31;;;;;;;2.78;2.05;;;13.00;96.70;;;;;;2070473;28;20201;-69
2023/07/14 01:55:34;;;;;;;3.45;2.35;;;12.90;97.00;;;;;;2075777;28;20193;-68
2023/07/14 01:56:36;;;;;;;3.60;2.20;;;13.00;97.10;;;;;;2063279;28;20245;-68
2023/07/14 01:57:38;;;;;;;4.03;2.55;;;12.90;97.20;;;;;;2070280;28;20182;-68
2023/07/14 01:58:56;;;;;;;4.32;2.05;;;12.90;97.30;;;;;;2067835;28;20241;-68
2023/07/14 02:00:11;;;;;;;2.22;2.08;;;13.00;97.00;;;;;;2080457;28;20189;-68
2023/07/14 02:01:12;;;;;;;4.35;2.05;;;13.00;97.10;;;;;;2052699;28;20197;-67
2023/07/14 02:02:33;;;;;;;3.05;2.50;;;13.00;96.80;;;;;;2063038;28;20293;-68
2023/07/14 02:03:44;;;;;;;2.65;2.05;;;13.00;97.10;;;;;;2073508;28;20247;-68
2023/07/14 02:04:47;;;;;;;3.85;2.25;;;12.90;97.20;;;;;;2068406;28;20236;-68
2023/07/14 02:05:48;;;;;;;4.30;2.38;;;12.90;97.20;;;;;;2089339;28;20253;-68
2023/07/14 02:06:49;;;;;;;3.03;2.27;;;12.90;97.10;;;;;;2069918;28;20236;-69
2023/07/14 02:07:50;;;;;;;3.72;2.22;;;12.90;97.20;;;;;;2072791;28;20201;-68
2023/07/14 02:08:51;;;;;;;3.38;2.67;;;12.90;97.00;;;;;;2061304;28;20240;-68
2023/07/14 02:09:52;;;;;;;2.43;2.10;;;12.80;97.00;;;;;;2069149;28;20647;-69
2023/07/14 02:10:53;;;;;;;4.17;2.63;;;12.80;97.30;;;;;;2056829;28;20487;-69
2023/07/14 02:12:24;;;;;;;3.60;2.43;;;12.80;97.30;;;;;;2074945;28;20224;-68
2023/07/14 02:13:25;;;;;;;4.50;2.40;;;12.80;97.40;;;;;;2072359;28;20891;-68
2023/07/14 02:14:34;;;;;;;6.75;2.42;;;12.80;97.30;;;;;;2062525;28;20230;-67
2023/07/14 02:15:35;;;;;;;3.35;2.50;;;12.80;97.40;;;;;;2070277;28;20205;-68
2023/07/14 02:16:36;;;;;;;3.53;2.28;;;12.70;97.50;;;;;;2067718;28;20252;-68
2023/07/14 02:17:38;;;;;;;5.43;2.55;;;12.70;97.60;;;;;;2072774;28;20562;-68
2023/07/14 02:18:39;;;;;;;2.50;2.28;;;12.70;97.70;;;;;;2064246;28;20630;-68
2023/07/14 02:19:40;;;;;;;4.53;2.42;;;12.70;97.60;;;;;;2080820;28;20581;-68
2023/07/14 02:20:43;;;;;;;4.67;2.63;;;12.70;97.70;;;;;;2058208;28;20237;-68
2023/07/14 02:21:46;;;;;;;2.80;2.10;;;12.70;97.80;;;;;;2076457;28;20197;-68
2023/07/14 02:22:49;;;;;;;2.78;1.98;;;12.70;97.70;;;;;;2075438;28;20244;-67
2023/07/14 02:23:50;;;;;;;4.47;2.22;;;12.60;97.80;;;;;;2089116;28;20605;-68
2023/07/14 02:24:53;;;;;;;3.78;2.20;;;12.70;97.90;;;;;;2068322;28;20701;-68
2023/07/14 02:26:34;;;;;;;4.03;3.08;;;12.60;97.80;;;;;;2072733;28;20194;-68
2023/07/14 02:27:35;;;;;;;3.30;2.17;;;12.60;97.80;;;;;;2070322;28;20227;-67
2023/07/14 02:28:35;;;;;;;2.83;2.30;;;12.60;98.10;;;;;;2069914;28;20238;-68
2023/07/14 02:29:37;;;;;;;2.95;2.50;;;12.50;98.00;;;;;;2078477;28;20196;-68
2023/07/14 02:30:39;;;;;;;3.83;2.40;;;12.50;98.10;;;;;;2068338;28;20239;-68
2023/07/14 02:31:57;;;;;;;2.53;2.33;;;12.50;98.20;;;;;;2083666;28;20187;-68
2023/07/14 02:33:11;;;;;;;2.88;2.38;;;12.50;98.10;;;;;;2058480;28;20256;-68
2023/07/14 02:34:15;;;;;;;3.88;2.60;;;12.50;98.00;;;;;;2056365;28;20304;-70
2023/07/14 02:35:36;;;;;;;3.10;2.20;;;12.60;98.00;;;;;;2073233;28;20213;-68
2023/07/14 02:37:01;;;;;;;4.72;2.63;;;12.50;98.00;;;;;;2070545;28;20236;-68
2023/07/14 02:38:13;;;;;;;3.03;2.05;;;12.50;98.00;;;;;;2078119;28;20205;-68
2023/07/14 02:39:14;;;;;;;3.22;2.40;;;12.50;98.10;;;;;;2067684;28;20297;-68
2023/07/14 02:40:15;;;;;;;6.20;2.53;;;12.40;98.10;;;;;;2057839;28;20196;-68
2023/07/14 02:41:29;;;;;;;3.43;2.50;;;12.30;98.10;;;;;;2083861;28;20257;-68
2023/07/14 02:42:38;;;;;;;4.70;2.42;;;12.30;98.30;;;;;;2061749;28;20976;-68
2023/07/14 02:43:39;;;;;;;4.05;2.47;;;12.20;98.60;;;;;;2074866;28;20185;-68
2023/07/14 02:44:40;;;;;;;3.90;2.17;;;12.30;98.70;;;;;;2066896;28;20316;-68
2023/07/14 02:46:22;;;;;;;2.93;2.33;;;12.30;98.50;;;;;;2072712;28;20546;-68
2023/07/14 02:47:23;;;;;;;3.53;2.75;;;12.20;99.00;;;;;;2074411;28;20221;-68
2023/07/14 02:48:32;;;;;;;4.43;2.80;;;12.10;99.10;;;;;;2070987;28;20256;-68
2023/07/14 02:49:32;;;;;;;3.50;2.30;;;12.10;99.40;;;;;;2074900;28;20181;-68
2023/07/14 02:50:33;;;;;;;2.80;2.27;;;12.10;99.60;;;;;;2056183;28;20600;-68
2023/07/14 02:51:34;;;;;;;4.17;2.63;;;12.10;99.50;;;;;;2078931;28;20255;-68
2023/07/14 02:52:34;;;;;;;2.50;2.30;;;12.20;99.30;;;;;;2078199;28;20236;-68
2023/07/14 02:53:35;;;;;;;3.10;2.30;;;12.20;99.20;;;;;;2082775;28;20655;-68
2023/07/14 02:54:37;;;;;;;3.93;2.63;;;12.20;99.10;;;;;;2073540;28;20292;-68
2023/07/14 02:55:38;;;;;;;2.70;2.50;;;12.10;99.10;;;;;;2084660;28;20423;-68
2023/07/14 02:56:39;;;;;;;3.78;2.60;;;11.90;99.50;;;;;;2078224;28;20786;-68
2023/07/14 02:57:40;;;;;;;3.20;2.42;;;11.90;99.90;;;;;;2079712;28;20240;-68
2023/07/14 02:58:47;;;;;;;3.77;2.17;;;11.80;99.90;;;;;;2076993;28;20311;-68
2023/07/14 02:59:48;;;;;;;4.88;2.53;;;11.80;99.90;;;;;;2079010;28;20263;-67
2023/07/14 03:00:50;;;;;;;3.13;2.40;;;11.80;99.90;;;;;;2074945;28;20671;-68
2023/07/14 03:01:51;;;;;;;4.93;2.20;;;11.90;99.90;;;;;;2075582;28;20468;-67
2023/07/14 03:02:52;;;;;;;5.27;2.70;;;11.90;99.90;;;;;;2080178;28;20225;-68
2023/07/14 03:03:53;;;;;;;4.07;2.10;;;11.90;99.90;;;;;;2085205;28;20797;-68
2023/07/14 03:04:54;;;;;;;2.73;2.30;;;11.90;99.90;;;;;;2075097;28;20232;-68
2023/07/14 03:05:55;;;;;;;6.18;2.80;;;12.00;99.90;;;;;;2074827;28;20306;-68
2023/07/14 03:06:56;;;;;;;3.13;2.83;;;11.90;99.90;;;;;;2076904;28;20869;-68
2023/07/14 03:07:57;;;;;;;2.65;1.98;;;11.90;99.90;;;;;;2077911;28;20232;-67
2023/07/14 03:08:58;;;;;;;3.53;2.87;;;12.00;99.90;;;;;;2077829;28;20270;-68
2023/07/14 03:10:00;;;;;;;5.80;2.37;;;12.10;99.90;;;;;;2075228;28;20231;-68
2023/07/14 03:11:00;;;;;;;3.58;2.42;;;12.10;99.90;;;;;;2075623;28;20232;-68
2023/07/14 03:12:01;;;;;;;3.77;2.10;;;12.10;99.70;;;;;;2074563;28;20303;-68
2023/07/14 03:13:02;;;;;;;2.60;2.40;;;12.10;99.50;;;;;;2078316;28;20197;-68
2023/07/14 03:14:04;;;;;;;3.58;2.40;;;12.10;99.60;;;;;;2084782;28;20886;-69
2023/07/14 03:15:06;;;;;;;3.20;2.55;;;12.00;99.70;;;;;;2074401;28;20188;-69
2023/07/14 03:16:07;;;;;;;4.60;2.50;;;12.00;99.90;;;;;;2074134;28;20899;-70
2023/07/14 03:17:09;;;;;;;3.17;2.50;;;12.00;99.80;;;;;;2078286;28;20189;-69
2023/07/14 03:18:10;;;;;;;2.67;2.45;;;12.10;99.70;;;;;;2074476;28;20192;-68
2023/07/14 03:19:12;;;;;;;3.38;2.40;;;12.10;99.60;;;;;;2070121;28;20233;-68
2023/07/14 03:20:14;;;;;;;3.60;2.58;;;12.00;99.70;;;;;;2068525;28;20197;-68
2023/07/14 03:21:14;;;;;;;3.50;2.38;;;12.00;99.80;;;;;;2070987;28;20189;-68
2023/07/14 03:22:15;;;;;;;2.60;2.40;;;12.10;99.80;;;;;;2068302;28;20186;-68
2023/07/14 03:23:16;;;;;;;6.33;2.70;;;12.10;99.80;;;;;;2083914;28;20185;-68
2023/07/14 03:24:16;;;;;;;2.93;2.27;;;12.00;99.70;;;;;;2078156;28;20255;-68
2023/07/14 03:25:17;;;;;;;2.93;2.27;;;12.00;99.80;;;;;;2070891;28;20276;-68
2023/07/14 03:26:18;;;;;;;3.17;2.43;;;12.00;99.80;;;;;;2075774;28;20726;-69
2023/07/14 03:27:18;;;;;;;2.33;2.13;;;12.00;99.80;;;;;;2081874;28;20268;-68
2023/07/14 03:28:19;;;;;;;2.33;2.10;;;11.90;99.90;;;;;;2077090;28;20219;-68
2023/07/14 03:29:20;;;;;;;3.40;2.30;;;12.00;99.90;;;;;;2067281;28;20224;-68
2023/07/14 03:30:21;;;;;;;3.33;2.40;;;12.00;99.90;;;;;;2067419;28;20310;-68
2023/07/14 03:31:21;;;;;;;3.97;2.60;;;12.00;99.90;;;;;;2078345;28;20224;-68
2023/07/14 03:32:22;;;;;;;3.20;2.67;;;12.00;99.80;;;;;;2081107;28;20704;-68
2023/07/14 03:33:23;;;;;;;3.73;2.90;;;12.00;99.90;;;;;;2084510;28;20230;-68
2023/07/14 03:34:24;;;;;;;3.30;2.42;;;12.00;99.80;;;;;;2076036;28;20320;-70
2023/07/14 03:35:24;;;;;;;4.77;2.77;;;12.10;99.60;;;;;;2071490;28;20218;-70
2023/07/14 03:36:25;;;;;;;3.70;2.80;;;12.00;99.60;;;;;;2075508;28;20229;-68
2023/07/14 03:37:26;;;;;;;2.40;2.20;;;12.00;99.90;;;;;;2085020;28;20227;-68
2023/07/14 03:38:27;;;;;;;2.83;2.23;;;12.00;99.90;;;;;;2077148;28;20286;-68
2023/07/14 03:39:30;;;;;;;3.13;2.37;;;12.00;99.80;;;;;;2074801;28;20380;-68
2023/07/14 03:40:31;;;;;;;3.38;2.80;;;12.00;99.80;;;;;;2069127;28;20225;-68
2023/07/14 03:41:32;;;;;;;3.15;2.30;;;11.90;99.90;;;;;;2075791;28;20235;-68
2023/07/14 03:42:34;;;;;;;3.33;2.70;;;12.00;99.90;;;;;;2073563;28;20790;-68
2023/07/14 03:43:35;;;;;;;3.42;2.38;;;12.00;99.90;;;;;;2079180;28;20719;-68
2023/07/14 03:44:36;;;;;;;4.00;2.75;;;12.00;99.90;;;;;;2079326;28;20254;-68
2023/07/14 03:45:37;;;;;;;2.43;2.23;;;11.90;99.90;;;;;;2080541;28;20275;-68
2023/07/14 03:46:37;;;;;;;3.13;2.60;;;11.90;99.90;;;;;;2074972;28;20279;-68
2023/07/14 03:47:39;;;;;;;3.33;2.30;;;11.90;99.90;;;;;;2075375;28;20749;-68
2023/07/14 03:48:40;;;;;;;2.78;2.30;;;11.80;99.90;;;;;;2081131;28;20290;-68
2023/07/14 03:49:41;;;;;;;4.97;2.43;;;11.90;99.90;;;;;;2082822;28;20293;-68
2023/07/14 03:50:42;;;;;;;3.90;2.57;;;11.80;99.90;;;;;;2079717;28;20408;-68
2023/07/14 03:51:44;;;;;;;4.90;2.95;;;11.90;99.90;;;;;;2080712;28;20244;-68
2023/07/14 03:52:44;;;;;;;3.28;2.38;;;11.80;99.90;;;;;;2078612;28;20303;-68
2023/07/14 03:53:45;;;;;;;4.03;2.40;;;11.80;99.90;;;;;;2077753;28;20720;-68
2023/07/14 03:54:46;;;;;;;4.10;2.30;;;11.90;99.90;;;;;;2072447;28;20697;-68
2023/07/14 03:55:48;;;;;;;3.17;2.30;;;11.80;99.90;;;;;;2072719;28;20229;-68
2023/07/14 03:56:52;;;;;;;3.17;2.60;;;11.80;99.90;;;;;;2073714;28;20224;-68
2023/07/14 03:57:52;;;;;;;2.80;2.22;;;11.80;99.90;;;;;;2069474;28;20323;-68
2023/07/14 03:58:53;;;;;;;3.77;2.30;;;11.80;99.90;;;;;;2070872;28;20287;-68
2023/07/14 03:59:54;;;;;;;2.73;2.30;;;11.70;99.90;;;;;;2075693;28;20330;-68
2023/07/14 04:01:01;;;;;;;2.40;2.10;;;11.70;99.90;;;;;;2070700;28;20225;-69
2023/07/14 04:02:01;;;;;;;8.27;2.80;;;11.80;99.90;;;;;;2068654;28;20247;-69
2023/07/14 04:03:02;;;;;;;2.97;2.50;;;11.80;99.90;;;;;;2070827;28;20210;-69
2023/07/14 04:04:03;;;;;;;3.90;2.80;;;11.80;99.90;;;;;;2075959;28;20213;-69
2023/07/14 04:05:07;;;;;;;3.70;2.30;;;11.90;99.90;;;;;;2079726;28;21258;-69
2023/07/14 04:06:07;;;;;;;3.88;2.75;;;11.90;99.90;;;;;;2062938;28;20298;-69
2023/07/14 04:07:10;;;;;;;3.30;2.50;;;11.90;99.90;;;;;;2069750;28;20216;-68
2023/07/14 04:08:10;;;;;;;4.38;2.75;;;11.80;99.90;;;;;;2081426;28;20701;-68
2023/07/14 04:09:11;;;;;;;2.67;2.30;;;11.80;99.90;;;;;;2082877;28;20202;-68
2023/07/14 04:10:12;;;;;;;4.53;2.27;;;11.90;99.90;;;;;;2083366;28;20559;-67
2023/07/14 04:11:13;;;;;;;6.30;2.70;;;11.90;99.90;;;;;;2072467;28;20193;-68
2023/07/14 04:12:14;;;;;;;4.32;2.35;;;11.90;99.90;;;;;;2076806;28;20189;-68
2023/07/14 04:13:15;;;;;;;4.83;2.60;;;11.90;99.90;;;;;;2074009;28;20205;-68
2023/07/14 04:14:16;;;;;;;4.53;2.40;;;11.90;99.90;;;;;;2070299;28;20275;-68
2023/07/14 04:15:17;;;;;;;3.20;2.60;;;11.90;99.90;;;;;;2075514;28;20637;-68
2023/07/14 04:16:23;;;;;;;4.07;2.58;;;11.80;99.90;;;;;;2075171;28;20177;-68
2023/07/14 04:17:24;;;;;;;4.80;2.42;;;11.80;99.90;;;;;;2070429;28;20291;-68
2023/07/14 04:18:25;;;;;;;4.00;2.57;;;11.90;99.90;;;;;;2071475;28;20229;-69
2023/07/14 04:19:26;;;;;;;4.28;2.55;;;12.00;99.90;;;;;;2078922;28;20731;-68
2023/07/14 04:20:28;;;;;;;3.33;2.45;;;11.90;99.90;;;;;;2086221;28;20658;-68
2023/07/14 04:21:30;;;;;;;2.72;2.47;;;12.00;99.90;;;;;;2078418;28;20236;-68
2023/07/14 04:22:31;;;;;;;6.18;2.78;;;12.00;99.90;;;;;;2076381;28;20732;-68
2023/07/14 04:23:33;;;;;;;8.07;2.85;;;11.90;99.90;;;;;;2070521;28;20233;-69
2023/07/14 04:24:33;;;;;;;9.45;2.97;;;12.00;99.90;;;;;;2062937;28;20743;-68
2023/07/14 04:25:35;;;;;;;10.33;3.27;;;12.00;99.90;;;;;;2066982;28;20233;-68
2023/07/14 04:26:36;;;;;;;5.25;2.55;;;12.10;99.90;;;;;;2086860;28;20228;-69
2023/07/14 04:27:37;;;;;;;6.93;2.60;;;12.10;99.90;;;;;;2074298;28;20256;-70
2023/07/14 04:28:38;;;;;;;4.68;2.55;;;12.10;99.90;;;;;;2081250;28;20549;-68
2023/07/14 04:29:40;;;;;;;4.03;2.90;;;12.10;99.90;;;;;;2083783;28;20228;-68
2023/07/14 04:30:41;;;;;;;4.78;2.50;;;12.20;99.90;;;;;;2086838;28;20335;-68
2023/07/14 04:31:42;;;;;;;7.55;2.53;;;12.20;99.90;;;;;;2086216;28;20220;-69
2023/07/14 04:32:43;;;;;;;3.83;2.33;;;12.20;99.90;;;;;;2082861;28;20236;-68
2023/07/14 04:33:46;;;;;;;5.40;2.47;;;12.30;99.90;;;;;;2085574;28;20298;-68
2023/07/14 04:34:49;;;;;;;6.43;2.50;;;12.30;99.90;;;;;;2070384;28;20315;-68
2023/07/14 04:35:54;;;;;;;7.88;2.80;;;12.30;99.90;;;;;;2068056;28;20232;-68
2023/07/14 04:36:55;;;;;;;5.10;2.50;;;12.40;99.90;;;;;;2075037;28;20307;-69
2023/07/14 04:37:56;;;;;;;7.88;2.70;;;12.40;99.80;;;;;;2078718;28;20801;-68
2023/07/14 04:39:15;;;;;;;4.27;2.67;;;12.40;99.70;;;;;;2082634;28;20224;-69
2023/07/14 04:40:16;;;;;;;81.65;7.38;;;12.40;99.90;;;;;;2069682;28;20221;-68
2023/07/14 04:41:17;;;;;;;93.72;8.73;;;12.40;99.90;;;;;;2078316;28;20248;-68
2023/07/14 04:42:18;;;;;;;75.17;7.53;;;12.40;99.90;;;;;;2075288;28;20170;-68
2023/07/14 04:43:19;;;;;;;33.85;4.97;;;12.30;99.90;;;;;;2074043;28;20642;-68
2023/07/14 04:44:20;;;;;;;17.73;3.08;;;12.30;99.90;;;;;;2077747;28;20639;-68
2023/07/14 04:45:21;;;;;;;19.00;3.22;;;12.30;99.90;;;;;;2074707;28;20291;-68
2023/07/14 04:46:24;;;;;;;18.20;3.20;;;12.40;99.90;;;;;;2073438;28;20256;-68
2023/07/14 04:47:25;;;;;;;16.52;3.65;;;12.50;99.90;;;;;;2085861;28;20262;-68
2023/07/14 04:48:25;;;;;;;7.53;2.30;;;12.50;99.90;;;;;;2083107;28;20232;-68
2023/07/14 04:49:26;;;;;;;7.63;2.50;;;12.60;99.90;;;;;;2086363;28;20228;-68
2023/07/14 04:50:27;;;;;;;8.90;2.67;;;12.70;99.90;;;;;;2076487;28;20324;-68
2023/07/14 04:51:29;;;;;;;2.40;2.20;;;12.80;99.90;;;;;;2075548;28;20708;-69
2023/07/14 04:52:30;;;;;;;4.85;2.22;;;12.80;99.70;;;;;;2073548;28;20785;-67
2023/07/14 04:53:30;;;;;;;3.43;2.17;;;12.90;99.40;;;;;;2077394;28;20331;-67
2023/07/14 04:54:32;;;;;;;4.90;2.63;;;13.00;99.00;;;;;;2073627;28;20232;-67
2023/07/14 04:55:41;;;;;;;2.92;2.22;;;13.10;99.00;;;;;;2076296;28;20856;-68
2023/07/14 04:56:43;;;;;;;4.40;2.28;;;13.10;98.80;;;;;;2081678;28;20225;-67
2023/07/14 04:57:44;;;;;;;4.65;2.63;;;13.10;98.60;;;;;;2083810;28;20217;-68
2023/07/14 04:58:44;;;;;;;4.57;2.37;;;13.10;98.50;;;;;;2082273;28;20895;-67
2023/07/14 04:59:45;;;;;;;5.20;2.40;;;13.10;98.50;;;;;;2078974;28;20319;-68
2023/07/14 05:00:49;;;;;;;2.93;2.43;;;13.20;98.40;;;;;;2073975;28;20221;-67
2023/07/14 05:01:50;;;;;;;2.33;2.05;;;13.20;98.10;;;;;;2070924;28;20304;-67
2023/07/14 05:02:51;;;;;;;3.37;2.30;;;13.30;98.00;;;;;;2077327;28;20787;-67
2023/07/14 05:03:51;;;;;;;2.90;2.20;;;13.20;97.90;;;;;;2075035;28;20224;-67
2023/07/14 05:05:21;;;;;;;6.93;2.20;;;13.20;98.00;;;;;;2076941;28;20235;-67
2023/07/14 05:06:22;;;;;;;3.10;2.10;;;13.20;98.00;;;;;;2076469;28;20716;-68
2023/07/14 05:07:24;;;;;;;2.53;2.23;;;13.10;97.90;;;;;;2075381;28;20256;-67
2023/07/14 05:08:25;;;;;;;5.97;2.72;;;13.10;98.30;;;;;;2070379;28;20233;-67
2023/07/14 05:09:27;;;;;;;3.43;2.40;;;13.00;98.40;;;;;;2078426;28;20237;-68
2023/07/14 05:10:31;;;;;;;3.35;2.50;;;12.90;98.90;;;;;;2084571;28;20231;-66
2023/07/14 05:11:32;;;;;;;4.22;2.28;;;12.90;99.40;;;;;;2079015;28;20229;-66
2023/07/14 05:12:33;;;;;;;5.57;2.58;;;12.90;99.40;;;;;;2078776;28;20232;-67
2023/07/14 05:13:34;;;;;;;3.80;2.40;;;12.90;99.50;;;;;;2079519;28;20256;-66
2023/07/14 05:14:35;;;;;;;4.67;2.20;;;13.00;99.20;;;;;;2074810;28;20897;-66
2023/07/14 05:15:35;;;;;;;3.40;2.20;;;13.10;98.90;;;;;;2077768;28;20240;-66
2023/07/14 05:16:36;;;;;;;3.20;2.17;;;13.20;98.60;;;;;;2077219;28;20220;-66
2023/07/14 05:17:38;;;;;;;2.80;2.43;;;13.20;98.70;;;;;;2082752;28;20251;-66
2023/07/14 05:18:39;;;;;;;4.15;2.47;;;13.30;98.70;;;;;;2069558;28;20323;-67
2023/07/14 05:19:40;;;;;;;2.63;2.13;;;13.30;98.60;;;;;;2069827;28;20232;-66
2023/07/14 05:20:41;;;;;;;3.37;1.90;;;13.40;98.50;;;;;;2077399;28;20236;-66
2023/07/14 05:21:42;;;;;;;3.42;2.25;;;13.40;98.80;;;;;;2076973;28;20623;-66
2023/07/14 05:22:52;;;;;;;4.97;2.20;;;13.50;98.10;;;;;;2082035;28;20259;-66
2023/07/14 05:23:53;;;;;;;3.72;2.47;;;13.50;98.10;;;;;;2071786;28;20239;-66
2023/07/14 05:24:53;;;;;;;5.63;2.10;;;13.60;97.90;;;;;;2070526;28;20642;-66
2023/07/14 05:25:55;;;;;;;2.50;2.20;;;13.60;97.50;;;;;;2070426;28;20229;-66
2023/07/14 05:26:56;;;;;;;3.97;2.17;;;13.60;97.30;;;;;;2069958;28;20221;-66
2023/07/14 05:27:58;;;;;;;2.85;2.25;;;13.70;97.30;;;;;;2078287;28;20327;-66
2023/07/14 05:28:58;;;;;;;4.25;1.75;;;13.70;96.90;;;;;;2085199;28;20220;-66
2023/07/14 05:29:59;;;;;;;4.40;2.63;;;13.70;96.70;;;;;;2077101;28;20226;-67